Time;durP1;ratioP1;P1;durP2;ratioP2;P2;SDS_P1;SDS_P2;PMS_P1;PMS_P2;Temp;Humidity;BMP_temperature;BMP_pressure;BME280_temperature;BME280_humidity;BME280_pressure;Samples;Min_cycle;Max_cycle;Signal;HPM_P1;HPM_P2
2022/03/13 00:00:54;;;;;;;8.67;4.53;;;1.40;53.60;;;;;;4917170;29;20473;-78
2022/03/13 00:03:26;;;;;;;9.27;4.77;;;1.30;53.70;;;;;;4916889;29;20459;-77
2022/03/13 00:05:54;;;;;;;5.87;4.27;;;1.30;53.70;;;;;;4917333;29;20853;-76
2022/03/13 00:08:27;;;;;;;7.70;4.73;;;1.20;53.90;;;;;;4916650;29;20459;-78
2022/03/13 00:10:57;;;;;;;10.67;4.87;;;1.20;54.30;;;;;;4916712;29;20433;-80
2022/03/13 00:13:31;;;;;;;7.87;4.70;;;1.10;54.40;;;;;;4916483;29;20459;-78
2022/03/13 00:16:03;;;;;;;8.27;4.83;;;1.10;54.30;;;;;;4914073;29;20453;-79
2022/03/13 00:18:34;;;;;;;9.13;4.63;;;1.10;54.40;;;;;;4899341;29;20454;-77
2022/03/13 00:21:03;;;;;;;7.17;4.83;;;1.00;54.50;;;;;;4916952;29;20894;-80
2022/03/13 00:23:31;;;;;;;5.80;4.20;;;1.00;54.50;;;;;;4916881;29;20464;-78
2022/03/13 00:26:08;;;;;;;8.03;4.57;;;1.00;54.60;;;;;;4914699;29;20516;-78
2022/03/13 00:28:39;;;;;;;8.97;4.83;;;1.00;54.70;;;;;;4916608;29;20496;-79
2022/03/13 00:31:07;;;;;;;8.50;4.43;;;0.90;54.70;;;;;;4915864;29;20457;-79
2022/03/13 00:33:35;;;;;;;8.03;4.00;;;0.90;54.70;;;;;;4916859;29;20461;-80
2022/03/13 00:36:04;;;;;;;9.27;4.53;;;0.90;54.60;;;;;;4916562;29;20481;-77
2022/03/13 00:38:32;;;;;;;7.03;4.60;;;0.90;54.70;;;;;;4909999;29;20545;-78
2022/03/13 00:41:01;;;;;;;11.57;4.60;;;0.90;55.00;;;;;;4905968;29;20967;-78
2022/03/13 00:43:29;;;;;;;7.03;4.47;;;0.90;55.00;;;;;;4916918;29;20438;-77
2022/03/13 00:45:58;;;;;;;10.80;4.90;;;0.80;54.60;;;;;;4916635;29;21014;-77
2022/03/13 00:48:28;;;;;;;6.77;4.40;;;0.90;54.50;;;;;;4917059;29;20481;-77
2022/03/13 00:50:56;;;;;;;8.00;4.23;;;0.80;54.40;;;;;;4916879;29;20645;-77
2022/03/13 00:53:28;;;;;;;7.60;4.67;;;0.90;54.30;;;;;;4905541;29;20537;-77
2022/03/13 00:55:56;;;;;;;6.20;4.30;;;0.90;54.50;;;;;;4907408;29;20460;-75
2022/03/13 00:58:23;;;;;;;8.87;4.67;;;0.80;54.90;;;;;;4902586;29;20545;-76
2022/03/13 01:00:53;;;;;;;8.17;5.03;;;0.70;54.90;;;;;;4897922;29;20555;-74
2022/03/13 01:03:47;;;;;;;6.83;4.70;;;0.70;54.70;;;;;;4910280;29;20548;-77
2022/03/13 01:06:20;;;;;;;6.50;4.67;;;0.70;54.40;;;;;;4919362;29;20500;-76
2022/03/13 01:08:49;;;;;;;9.63;4.80;;;0.70;54.50;;;;;;4922790;29;20448;-77
2022/03/13 01:11:20;;;;;;;6.63;4.60;;;0.70;54.30;;;;;;4925483;29;20459;-75
2022/03/13 01:13:48;;;;;;;7.30;5.00;;;0.70;54.50;;;;;;4922051;29;20440;-76
2022/03/13 01:16:18;;;;;;;7.97;4.63;;;0.70;54.10;;;;;;4898987;29;20494;-78
2022/03/13 01:18:50;;;;;;;6.47;4.67;;;0.70;54.10;;;;;;4912579;29;20921;-76
2022/03/13 01:21:20;;;;;;;9.87;4.90;;;0.60;54.00;;;;;;4916165;29;20444;-80
2022/03/13 01:24:17;;;;;;;7.33;4.73;;;0.60;54.40;;;;;;4916577;29;20457;-77
2022/03/13 01:26:49;;;;;;;9.03;5.10;;;0.50;54.70;;;;;;4915501;29;20539;-81
2022/03/13 01:29:18;;;;;;;8.63;4.43;;;0.50;54.50;;;;;;4916129;29;20440;-79
2022/03/13 01:31:48;;;;;;;8.23;4.60;;;0.50;54.90;;;;;;4916653;29;20499;-78
2022/03/13 01:34:42;;;;;;;8.40;5.07;;;0.50;54.70;;;;;;4917659;29;20501;-79
2022/03/13 01:37:16;;;;;;;7.47;4.63;;;0.40;54.80;;;;;;4917364;29;20482;-77
2022/03/13 01:39:44;;;;;;;8.37;4.23;;;0.40;55.10;;;;;;4911966;29;20453;-79
2022/03/13 01:42:12;;;;;;;7.83;4.63;;;0.30;54.90;;;;;;4918569;29;20552;-78
2022/03/13 01:44:40;;;;;;;8.10;5.27;;;0.30;55.00;;;;;;4919315;29;20556;-78
2022/03/13 01:47:09;;;;;;;6.77;4.80;;;0.30;55.10;;;;;;4919208;29;20851;-76
2022/03/13 01:49:39;;;;;;;9.37;4.70;;;0.30;55.20;;;;;;4919906;29;20839;-77
2022/03/13 01:52:14;;;;;;;6.87;4.53;;;0.20;55.80;;;;;;4921549;29;20480;-75
2022/03/13 01:54:45;;;;;;;6.87;4.53;;;0.10;55.90;;;;;;4920987;29;20521;-77
2022/03/13 01:57:18;;;;;;;7.73;4.70;;;0.10;56.00;;;;;;4920578;29;20481;-79
2022/03/13 01:59:52;;;;;;;6.67;4.70;;;0.00;55.90;;;;;;4921175;29;20453;-76
2022/03/13 02:02:20;;;;;;;7.60;4.97;;;-0.10;56.40;;;;;;4929123;29;20469;-77
2022/03/13 02:04:53;;;;;;;9.03;5.00;;;-0.10;56.30;;;;;;4922620;29;20457;-78
2022/03/13 02:07:22;;;;;;;8.83;4.57;;;-0.20;56.40;;;;;;4903812;29;20513;-77
2022/03/13 02:09:51;;;;;;;7.90;4.90;;;-0.10;56.10;;;;;;4903486;29;21020;-75
2022/03/13 02:12:20;;;;;;;6.57;4.60;;;-0.20;56.10;;;;;;4902313;29;20813;-79
2022/03/13 02:14:50;;;;;;;7.83;4.63;;;-0.20;56.10;;;;;;4910612;29;20470;-74
2022/03/13 02:17:28;;;;;;;8.50;4.97;;;-0.20;56.30;;;;;;4929395;29;20453;-75
2022/03/13 02:19:58;;;;;;;8.67;4.70;;;-0.20;56.60;;;;;;4930646;29;20552;-76
2022/03/13 02:22:26;;;;;;;8.70;4.30;;;-0.30;57.00;;;;;;4930679;29;20453;-77
2022/03/13 02:24:58;;;;;;;8.00;5.00;;;-0.30;56.90;;;;;;4930393;29;20871;-76
2022/03/13 02:27:29;;;;;;;6.90;4.67;;;-0.30;57.10;;;;;;4927491;29;20504;-77
2022/03/13 02:29:58;;;;;;;7.27;4.77;;;-0.40;57.30;;;;;;4926487;29;20457;-77
2022/03/13 02:32:28;;;;;;;11.70;5.13;;;-0.40;57.60;;;;;;4919785;29;20434;-78
2022/03/13 02:34:56;;;;;;;7.43;4.80;;;-0.40;57.70;;;;;;4918547;29;20477;-80
2022/03/13 02:37:37;;;;;;;8.30;4.97;;;-0.50;57.80;;;;;;4918524;29;20461;-76
2022/03/13 02:40:14;;;;;;;6.73;4.73;;;-0.50;57.90;;;;;;4917512;29;20465;-78
2022/03/13 02:42:42;;;;;;;8.30;5.47;;;-0.50;58.10;;;;;;4916616;29;20551;-79
2022/03/13 02:45:28;;;;;;;9.87;5.80;;;-0.60;58.10;;;;;;4917946;29;20871;-77
2022/03/13 02:47:56;;;;;;;9.00;5.50;;;-0.60;58.00;;;;;;4917505;29;20493;-78
2022/03/13 02:50:25;;;;;;;8.50;5.60;;;-0.60;58.30;;;;;;4915419;29;20479;-75
2022/03/13 02:52:53;;;;;;;7.87;5.23;;;-0.60;58.30;;;;;;4915969;29;20538;-77
2022/03/13 02:55:22;;;;;;;9.73;5.47;;;-0.60;58.60;;;;;;4918050;29;20468;-77
2022/03/13 02:57:52;;;;;;;11.17;5.97;;;-0.60;57.70;;;;;;4917733;29;20794;-75
2022/03/13 03:00:21;;;;;;;10.23;5.80;;;-0.60;57.80;;;;;;4917644;29;20461;-77
2022/03/13 03:02:50;;;;;;;10.50;5.90;;;-0.60;58.10;;;;;;4909679;29;20505;-78
2022/03/13 03:05:20;;;;;;;11.13;6.00;;;-0.60;57.90;;;;;;4899278;29;20462;-78
2022/03/13 03:07:48;;;;;;;9.60;5.73;;;-0.60;57.80;;;;;;4898535;29;20895;-79
2022/03/13 03:10:18;;;;;;;9.70;5.63;;;-0.60;57.60;;;;;;4898451;29;20498;-79
2022/03/13 03:12:48;;;;;;;8.67;5.50;;;-0.50;57.40;;;;;;4898746;29;20529;-78
2022/03/13 03:15:19;;;;;;;8.20;5.30;;;-0.50;57.50;;;;;;4907166;29;20556;-80
2022/03/13 03:17:47;;;;;;;7.60;5.33;;;-0.50;57.60;;;;;;4918706;29;20493;-78
2022/03/13 03:20:16;;;;;;;9.33;5.47;;;-0.50;57.30;;;;;;4918069;29;20539;-79
2022/03/13 03:22:46;;;;;;;9.43;5.90;;;-0.50;57.60;;;;;;4918133;29;21005;-78
2022/03/13 03:25:17;;;;;;;9.70;5.80;;;-0.60;57.70;;;;;;4918316;29;20450;-77
2022/03/13 03:27:47;;;;;;;11.77;5.90;;;-0.60;57.60;;;;;;4906441;29;20514;-78
2022/03/13 03:30:15;;;;;;;10.23;5.50;;;-0.60;57.70;;;;;;4898560;29;20545;-80
2022/03/13 03:32:43;;;;;;;9.00;5.60;;;-0.60;57.70;;;;;;4898206;29;20595;-77
2022/03/13 03:35:11;;;;;;;8.17;5.17;;;-0.70;58.00;;;;;;4898173;29;20517;-79
2022/03/13 03:37:39;;;;;;;8.70;5.50;;;-0.70;58.00;;;;;;4898003;29;20533;-78
2022/03/13 03:40:14;;;;;;;7.83;5.60;;;-0.70;58.50;;;;;;4913957;29;20461;-79
2022/03/13 03:42:43;;;;;;;10.13;5.63;;;-0.80;59.30;;;;;;4917414;29;20544;-78
2022/03/13 03:45:16;;;;;;;8.87;5.57;;;-0.90;59.70;;;;;;4917040;29;20904;-77
2022/03/13 03:47:45;;;;;;;8.07;5.70;;;-1.00;59.80;;;;;;4918518;29;20543;-78
2022/03/13 03:50:13;;;;;;;8.27;5.50;;;-1.10;60.70;;;;;;4917597;29;20465;-80
2022/03/13 03:52:42;;;;;;;7.90;4.77;;;-1.10;61.00;;;;;;4916126;29;20476;-78
2022/03/13 03:55:10;;;;;;;7.77;5.20;;;-1.20;61.00;;;;;;4916496;29;20881;-79
2022/03/13 03:57:38;;;;;;;8.63;4.80;;;-1.20;61.20;;;;;;4917639;29;20485;-78
2022/03/13 04:00:08;;;;;;;8.40;5.23;;;-1.30;61.40;;;;;;4917996;29;20549;-77
2022/03/13 04:03:02;;;;;;;7.07;4.77;;;-1.30;61.60;;;;;;4916667;29;20823;-76
2022/03/13 04:05:30;;;;;;;8.07;5.10;;;-1.40;61.90;;;;;;4916838;29;20948;-77
2022/03/13 04:07:58;;;;;;;9.13;5.00;;;-1.40;62.20;;;;;;4917192;29;20485;-78
2022/03/13 04:10:26;;;;;;;7.37;4.63;;;-1.40;62.30;;;;;;4916525;29;20967;-78
2022/03/13 04:12:55;;;;;;;8.17;4.90;;;-1.50;62.00;;;;;;4916250;29;20552;-78
2022/03/13 04:15:23;;;;;;;7.53;5.03;;;-1.40;61.80;;;;;;4916364;29;20457;-79
2022/03/13 04:17:55;;;;;;;8.70;5.33;;;-1.40;62.00;;;;;;4897879;29;20470;-78
2022/03/13 04:20:24;;;;;;;6.77;4.53;;;-1.50;62.50;;;;;;4897491;29;20500;-77
2022/03/13 04:22:52;;;;;;;8.67;5.23;;;-1.50;63.90;;;;;;4918893;29;20497;-77
2022/03/13 04:25:21;;;;;;;6.57;4.73;;;-1.50;62.60;;;;;;4938229;29;20445;-76
2022/03/13 04:27:49;;;;;;;7.10;5.00;;;-1.50;62.60;;;;;;4920481;29;20476;-77
2022/03/13 04:30:17;;;;;;;8.43;5.20;;;-1.50;62.70;;;;;;4926675;29;20542;-80
2022/03/13 04:32:45;;;;;;;7.80;4.50;;;-1.50;62.60;;;;;;4923954;29;20476;-80
2022/03/13 04:35:16;;;;;;;7.37;4.87;;;-1.50;62.60;;;;;;4932574;29;20472;-78
2022/03/13 04:37:45;;;;;;;8.33;5.13;;;-1.50;62.30;;;;;;4934964;29;20551;-77
2022/03/13 04:40:16;;;;;;;8.23;4.90;;;-1.50;62.20;;;;;;4914749;29;20445;-80
2022/03/13 04:42:44;;;;;;;8.83;4.90;;;-1.50;62.50;;;;;;4919181;29;20488;-77
2022/03/13 04:45:13;;;;;;;7.90;4.90;;;-1.50;62.80;;;;;;4937012;29;20473;-77
2022/03/13 04:47:41;;;;;;;8.10;5.37;;;-1.50;62.50;;;;;;4930064;29;20540;-78
2022/03/13 04:50:10;;;;;;;8.33;5.00;;;-1.50;62.80;;;;;;4918412;29;20568;-79
2022/03/13 04:52:38;;;;;;;8.43;5.10;;;-1.50;62.90;;;;;;4920776;29;20477;-77
2022/03/13 04:55:09;;;;;;;8.40;4.90;;;-1.50;62.60;;;;;;4920201;29;20544;-80
2022/03/13 04:57:37;;;;;;;7.90;5.00;;;-1.50;62.60;;;;;;4918151;29;20476;-79
2022/03/13 05:00:06;;;;;;;9.13;5.23;;;-1.50;62.10;;;;;;4917023;29;20540;-79
2022/03/13 05:02:37;;;;;;;8.07;5.00;;;-1.50;62.30;;;;;;4916109;29;20452;-76
2022/03/13 05:05:06;;;;;;;8.07;4.93;;;-1.50;61.80;;;;;;4916275;29;20951;-78
2022/03/13 05:07:38;;;;;;;10.30;5.23;;;-1.50;62.30;;;;;;4916316;29;20552;-77
2022/03/13 05:10:19;;;;;;;7.37;5.10;;;-1.50;61.70;;;;;;4916014;29;20473;-79
2022/03/13 05:12:51;;;;;;;10.33;4.80;;;-1.40;62.10;;;;;;4918602;29;20488;-79
2022/03/13 05:15:19;;;;;;;8.50;5.37;;;-1.40;62.50;;;;;;4919480;29;20896;-78
2022/03/13 05:17:48;;;;;;;7.70;5.13;;;-1.50;61.80;;;;;;4920025;29;20457;-79
2022/03/13 05:20:16;;;;;;;7.37;4.80;;;-1.50;62.00;;;;;;4919570;29;20536;-77
2022/03/13 05:22:44;;;;;;;8.00;5.03;;;-1.50;62.00;;;;;;4919599;29;20460;-76
2022/03/13 05:25:14;;;;;;;9.53;6.00;;;-1.50;62.40;;;;;;4919537;29;20556;-77
2022/03/13 05:27:42;;;;;;;7.40;5.10;;;-1.50;63.00;;;;;;4908170;29;20544;-78
2022/03/13 05:30:11;;;;;;;8.83;5.17;;;-1.50;62.50;;;;;;4900670;29;20628;-77
2022/03/13 05:32:39;;;;;;;7.07;5.00;;;-1.50;62.80;;;;;;4900318;29;20652;-78
2022/03/13 05:35:08;;;;;;;9.23;5.87;;;-1.60;63.20;;;;;;4913424;29;20631;-81
2022/03/13 05:37:39;;;;;;;9.07;5.13;;;-1.60;63.90;;;;;;4919942;29;20533;-77
2022/03/13 05:40:16;;;;;;;10.13;5.43;;;-1.60;63.50;;;;;;4915057;29;20445;-78
2022/03/13 05:42:46;;;;;;;8.20;5.10;;;-1.60;63.90;;;;;;4919242;29;20513;-78
2022/03/13 05:45:16;;;;;;;8.63;5.50;;;-1.60;63.80;;;;;;4919044;29;20510;-78
2022/03/13 05:47:48;;;;;;;9.33;5.87;;;-1.60;63.90;;;;;;4917806;29;20940;-79
2022/03/13 05:50:17;;;;;;;9.10;5.50;;;-1.60;63.90;;;;;;4917943;29;20923;-79
2022/03/13 05:52:47;;;;;;;8.47;5.43;;;-1.60;63.90;;;;;;4900283;29;20553;-80
2022/03/13 05:55:19;;;;;;;9.03;5.53;;;-1.50;64.00;;;;;;4900302;29;20477;-77
2022/03/13 05:57:47;;;;;;;8.73;5.23;;;-1.60;64.10;;;;;;4900292;29;20496;-78
2022/03/13 06:00:16;;;;;;;9.10;5.67;;;-1.50;64.40;;;;;;4899589;29;20548;-77
2022/03/13 06:02:46;;;;;;;7.93;5.50;;;-1.60;64.40;;;;;;4899669;29;21019;-78
2022/03/13 06:05:17;;;;;;;10.20;5.33;;;-1.50;64.60;;;;;;4899487;29;20513;-78
2022/03/13 06:07:46;;;;;;;7.50;4.93;;;-1.50;64.60;;;;;;4899366;29;20434;-77
2022/03/13 06:10:24;;;;;;;8.83;5.50;;;-1.50;65.20;;;;;;4902532;29;20564;-77
2022/03/13 06:12:52;;;;;;;7.63;5.83;;;-1.50;65.10;;;;;;4918478;29;20444;-78
2022/03/13 06:15:20;;;;;;;10.53;6.40;;;-1.40;65.00;;;;;;4924946;29;20453;-79
2022/03/13 06:17:49;;;;;;;10.90;6.87;;;-1.40;65.40;;;;;;4919005;29;20460;-79
2022/03/13 06:20:18;;;;;;;11.20;6.13;;;-1.40;65.30;;;;;;4918183;29;20480;-78
2022/03/13 06:22:48;;;;;;;9.53;6.30;;;-1.40;65.50;;;;;;4917387;29;20490;-79
2022/03/13 06:25:18;;;;;;;9.20;6.20;;;-1.40;65.30;;;;;;4922105;29;20552;-78
2022/03/13 06:27:47;;;;;;;9.93;6.73;;;-1.30;65.70;;;;;;4923740;29;20457;-78
2022/03/13 06:30:16;;;;;;;10.47;6.93;;;-1.30;65.50;;;;;;4928733;29;20523;-76
2022/03/13 06:32:46;;;;;;;8.63;6.07;;;-1.30;65.60;;;;;;4937583;29;20480;-79
2022/03/13 06:35:17;;;;;;;10.10;6.10;;;-1.30;65.10;;;;;;4938081;29;20953;-77
2022/03/13 06:37:45;;;;;;;9.30;5.90;;;-1.20;65.20;;;;;;4934722;29;20597;-77
2022/03/13 06:40:17;;;;;;;9.73;5.90;;;-1.10;65.40;;;;;;4919216;29;21054;-77
2022/03/13 06:42:49;;;;;;;13.67;7.43;;;-1.00;65.70;;;;;;4919546;29;20453;-77
2022/03/13 06:45:17;;;;;;;13.37;8.43;;;-0.90;65.60;;;;;;4919297;29;20528;-78
2022/03/13 06:47:46;;;;;;;12.23;7.90;;;-0.90;65.40;;;;;;4910508;29;20624;-78
2022/03/13 06:50:17;;;;;;;10.87;6.90;;;-0.80;65.20;;;;;;4908808;29;20489;-78
2022/03/13 06:52:47;;;;;;;8.33;5.77;;;-0.70;64.80;;;;;;4912874;29;20475;-79
2022/03/13 06:55:16;;;;;;;8.40;5.40;;;-0.60;64.90;;;;;;4917101;29;20487;-78
2022/03/13 06:57:45;;;;;;;10.50;5.90;;;-0.40;64.00;;;;;;4917249;29;20528;-80
2022/03/13 07:00:20;;;;;;;8.43;5.83;;;-0.30;63.80;;;;;;4916998;29;20512;-78
2022/03/13 07:02:49;;;;;;;9.43;5.60;;;-0.20;63.90;;;;;;4920750;29;20937;-76
2022/03/13 07:05:19;;;;;;;8.53;5.70;;;-0.10;63.30;;;;;;4917802;29;20461;-77
2022/03/13 07:07:47;;;;;;;8.37;5.77;;;0.00;63.30;;;;;;4917677;29;20888;-76
2022/03/13 07:10:15;;;;;;;9.13;6.20;;;0.10;63.10;;;;;;4912335;29;20592;-78
2022/03/13 07:12:44;;;;;;;7.97;5.93;;;0.20;62.50;;;;;;4916704;29;20865;-78
2022/03/13 07:15:14;;;;;;;9.77;6.00;;;0.40;62.50;;;;;;4916866;29;20441;-77
2022/03/13 07:17:46;;;;;;;12.27;7.10;;;0.50;62.00;;;;;;4915914;29;20460;-77
2022/03/13 07:20:15;;;;;;;8.17;6.37;;;0.50;61.70;;;;;;4917146;29;20477;-79
2022/03/13 07:22:45;;;;;;;8.73;6.00;;;0.60;61.50;;;;;;4910479;29;20556;-80
2022/03/13 07:25:14;;;;;;;9.70;6.00;;;0.80;61.70;;;;;;4916719;29;20541;-80
2022/03/13 07:27:45;;;;;;;8.17;5.87;;;1.00;61.20;;;;;;4916712;29;20879;-80
2022/03/13 07:30:14;;;;;;;10.30;6.00;;;1.10;60.90;;;;;;4917071;29;20492;-79
2022/03/13 07:32:44;;;;;;;9.63;6.13;;;1.20;61.00;;;;;;4914419;29;20476;-79
2022/03/13 07:35:14;;;;;;;7.40;5.63;;;1.40;61.30;;;;;;4913760;29;20564;-79
2022/03/13 07:37:42;;;;;;;9.53;6.27;;;1.70;60.50;;;;;;4916115;29;20544;-78
2022/03/13 07:40:12;;;;;;;7.67;5.67;;;2.10;60.10;;;;;;4915348;29;20488;-78
2022/03/13 07:42:43;;;;;;;9.60;6.70;;;2.50;59.20;;;;;;4918958;29;20554;-78
2022/03/13 07:45:15;;;;;;;10.00;6.63;;;3.10;58.70;;;;;;4916470;29;20321;-77
2022/03/13 07:47:48;;;;;;;9.17;6.57;;;4.20;56.90;;;;;;4915874;29;20209;-76
2022/03/13 07:50:18;;;;;;;8.23;5.60;;;5.40;54.20;;;;;;4909879;29;20233;-77
2022/03/13 07:52:47;;;;;;;9.20;6.00;;;6.60;52.00;;;;;;4914989;29;20303;-77
2022/03/13 07:55:16;;;;;;;8.60;6.20;;;7.70;49.30;;;;;;4916827;29;20277;-77
2022/03/13 07:57:44;;;;;;;7.60;6.00;;;8.80;48.20;;;;;;4915567;29;20241;-76
2022/03/13 08:00:15;;;;;;;9.90;6.17;;;10.20;45.40;;;;;;4915042;29;20668;-77
2022/03/13 08:02:46;;;;;;;7.07;5.67;;;11.50;43.20;;;;;;4915520;29;20722;-77
2022/03/13 08:05:16;;;;;;;9.70;6.20;;;11.90;41.70;;;;;;4913063;29;20221;-76
2022/03/13 08:07:45;;;;;;;7.83;5.70;;;12.90;40.90;;;;;;4918972;29;20293;-76
2022/03/13 08:10:15;;;;;;;7.07;5.83;;;13.90;40.30;;;;;;4911931;29;20225;-77
2022/03/13 08:12:43;;;;;;;8.50;6.07;;;15.30;38.60;;;;;;4913221;29;20249;-76
2022/03/13 08:15:11;;;;;;;7.40;5.47;;;15.90;37.10;;;;;;4897244;29;20198;-75
2022/03/13 08:17:40;;;;;;;6.73;5.67;;;15.00;38.20;;;;;;4914799;29;20236;-76
2022/03/13 08:20:10;;;;;;;7.40;5.93;;;14.70;37.70;;;;;;4906728;29;20224;-75
2022/03/13 08:22:38;;;;;;;9.53;6.13;;;14.30;39.00;;;;;;4896630;29;20209;-78
2022/03/13 08:25:10;;;;;;;7.97;6.07;;;14.70;38.70;;;;;;4901354;29;20702;-77
2022/03/13 08:27:38;;;;;;;6.73;5.33;;;15.30;38.10;;;;;;4913662;29;20209;-77
2022/03/13 08:30:09;;;;;;;7.77;6.17;;;15.80;37.80;;;;;;4915059;29;20580;-75
2022/03/13 08:32:37;;;;;;;9.23;6.27;;;17.20;36.60;;;;;;4916025;29;20209;-75
2022/03/13 08:35:06;;;;;;;8.23;6.30;;;17.00;36.10;;;;;;4916321;29;20714;-75
2022/03/13 08:37:34;;;;;;;8.53;6.33;;;16.50;36.60;;;;;;4915733;29;20229;-75
2022/03/13 08:40:04;;;;;;;8.30;6.20;;;16.90;36.80;;;;;;4915797;29;20213;-76
2022/03/13 08:42:34;;;;;;;8.37;6.33;;;16.00;37.10;;;;;;4909993;29;20219;-76
2022/03/13 08:45:02;;;;;;;8.87;6.07;;;16.30;38.20;;;;;;4897278;29;20241;-77
2022/03/13 08:47:30;;;;;;;8.10;6.00;;;16.00;37.10;;;;;;4896128;29;20214;-76
2022/03/13 08:49:58;;;;;;;7.83;6.30;;;16.00;37.90;;;;;;4914429;29;20600;-76
2022/03/13 08:52:26;;;;;;;8.67;6.03;;;16.20;38.00;;;;;;4911460;29;20302;-79
2022/03/13 08:54:55;;;;;;;7.03;6.33;;;16.60;38.00;;;;;;4914170;29;20228;-75
2022/03/13 08:57:23;;;;;;;6.90;6.20;;;16.20;37.30;;;;;;4916129;29;20299;-79
2022/03/13 08:59:54;;;;;;;9.17;6.67;;;16.80;37.70;;;;;;4910384;29;20218;-75
2022/03/13 09:02:23;;;;;;;7.67;6.30;;;17.70;37.20;;;;;;4911727;29;20730;-78
2022/03/13 09:04:54;;;;;;;7.30;6.40;;;17.10;37.10;;;;;;4908176;29;20205;-76
2022/03/13 09:07:23;;;;;;;7.43;6.63;;;17.50;37.30;;;;;;4904741;29;20523;-75
2022/03/13 09:09:51;;;;;;;7.70;6.43;;;17.70;37.60;;;;;;4907826;29;20244;-77
2022/03/13 09:12:21;;;;;;;9.30;6.43;;;17.00;38.10;;;;;;4912395;29;20283;-76
2022/03/13 09:14:49;;;;;;;7.97;6.67;;;17.80;43.00;;;;;;4914735;29;20300;-77
2022/03/13 09:17:18;;;;;;;9.60;6.97;;;18.90;37.80;;;;;;4906530;29;20329;-78
2022/03/13 09:19:46;;;;;;;9.53;6.20;;;17.60;37.80;;;;;;4909220;29;20233;-77
2022/03/13 09:22:17;;;;;;;7.57;6.43;;;18.10;38.00;;;;;;4908096;29;20284;-77
2022/03/13 09:24:46;;;;;;;8.90;6.90;;;18.50;38.00;;;;;;4910464;29;20600;-77
2022/03/13 09:27:16;;;;;;;9.30;6.85;;;19.10;36.50;;;;;;4911174;29;20227;-76
2022/03/13 09:29:44;;;;;;;8.07;7.10;;;17.90;37.00;;;;;;4914584;29;20197;-75
2022/03/13 09:32:17;;;;;;;10.50;7.15;;;18.30;38.00;;;;;;4912047;29;20256;-75
2022/03/13 09:34:48;;;;;;;8.90;6.47;;;18.70;36.90;;;;;;4911845;29;20248;-77
2022/03/13 09:37:17;;;;;;;8.05;6.80;;;18.90;37.60;;;;;;4909888;29;20296;-76
2022/03/13 09:40:06;;;;;;;8.93;6.70;;;19.30;37.00;;;;;;4914379;29;20201;-76
2022/03/13 09:42:34;;;;;;;7.95;7.07;;;20.20;36.30;;;;;;4921497;29;20205;-76
2022/03/13 09:45:03;;;;;;;9.20;6.75;;;19.70;36.90;;;;;;4917930;29;20248;-76
2022/03/13 09:47:33;;;;;;;8.73;6.72;;;20.40;37.50;;;;;;4914796;29;20292;-75
2022/03/13 09:50:01;;;;;;;10.30;6.60;;;19.90;37.90;;;;;;4914728;29;20597;-76
2022/03/13 09:52:31;;;;;;;7.72;6.72;;;20.00;37.30;;;;;;4915035;29;20209;-76
2022/03/13 09:54:59;;;;;;;8.07;7.28;;;20.70;36.30;;;;;;4908515;29;20217;-76
2022/03/13 09:57:28;;;;;;;8.95;7.50;;;20.90;37.10;;;;;;4910518;29;20261;-77
2022/03/13 09:59:56;;;;;;;7.47;6.70;;;20.00;36.10;;;;;;4915040;29;20662;-79
2022/03/13 10:02:35;;;;;;;9.30;6.82;;;20.10;37.40;;;;;;4918916;29;20248;-75
2022/03/13 10:05:09;;;;;;;8.23;7.43;;;20.30;36.80;;;;;;4917260;29;20260;-79
2022/03/13 10:07:54;;;;;;;8.20;7.30;;;19.90;36.90;;;;;;4918040;29;20249;-77
2022/03/13 10:10:27;;;;;;;8.02;7.22;;;19.70;36.40;;;;;;4907766;29;20201;-78
2022/03/13 10:12:55;;;;;;;9.55;7.55;;;20.90;37.00;;;;;;4907622;29;20245;-78
2022/03/13 10:15:25;;;;;;;9.13;8.23;;;21.00;36.00;;;;;;4911473;29;20234;-76
2022/03/13 10:17:55;;;;;;;8.95;7.85;;;20.50;35.30;;;;;;4925128;29;20208;-76
2022/03/13 10:20:25;;;;;;;10.15;8.48;;;19.70;36.90;;;;;;4932336;29;20805;-76
2022/03/13 10:23:04;;;;;;;10.63;7.93;;;19.30;38.20;;;;;;4917447;29;20989;-78
2022/03/13 10:25:39;;;;;;;8.80;7.95;;;19.70;38.50;;;;;;4918132;29;20220;-76
2022/03/13 10:28:19;;;;;;;10.25;8.40;;;20.00;38.40;;;;;;4931851;29;20514;-77
2022/03/13 10:30:48;;;;;;;10.15;8.52;;;19.90;38.20;;;;;;4929167;29;20252;-76
2022/03/13 10:33:18;;;;;;;9.05;7.97;;;18.90;38.30;;;;;;4936444;29;20213;-75
2022/03/13 10:35:48;;;;;;;9.32;7.88;;;19.50;37.80;;;;;;4934812;29;20219;-76
2022/03/13 10:38:18;;;;;;;10.82;8.45;;;20.30;37.40;;;;;;4922037;29;20232;-76
2022/03/13 10:40:50;;;;;;;10.50;8.45;;;19.90;38.30;;;;;;4916366;29;20304;-76
2022/03/13 10:43:23;;;;;;;9.13;8.10;;;20.20;38.20;;;;;;4917614;29;20205;-76
2022/03/13 10:45:53;;;;;;;9.75;8.40;;;20.50;38.40;;;;;;4916218;29;20213;-75
2022/03/13 10:48:28;;;;;;;10.07;8.25;;;19.50;37.40;;;;;;4916840;29;20757;-76
2022/03/13 10:50:58;;;;;;;11.02;8.45;;;20.30;37.60;;;;;;4915632;29;20281;-76
2022/03/13 10:53:27;;;;;;;10.32;8.55;;;20.00;37.40;;;;;;4916224;29;20229;-76
2022/03/13 10:56:08;;;;;;;9.27;8.27;;;20.70;37.20;;;;;;4916260;29;20299;-77
2022/03/13 10:58:39;;;;;;;8.93;8.02;;;21.40;37.60;;;;;;4916248;29;20276;-76
2022/03/13 11:01:14;;;;;;;9.98;8.23;;;21.30;37.50;;;;;;4915950;29;20727;-76
2022/03/13 11:03:50;;;;;;;10.00;8.57;;;20.70;37.80;;;;;;4916696;29;20227;-76
2022/03/13 11:06:19;;;;;;;12.45;11.20;;;20.30;37.20;;;;;;4917673;29;20212;-76
2022/03/13 11:08:54;;;;;;;10.43;8.93;;;20.40;39.30;;;;;;4917114;29;20257;-75
2022/03/13 11:11:23;;;;;;;9.40;8.43;;;20.70;38.50;;;;;;4917133;29;20204;-77
2022/03/13 11:13:56;;;;;;;10.52;8.63;;;21.70;36.40;;;;;;4916740;29;20267;-78
2022/03/13 11:16:29;;;;;;;9.65;8.65;;;21.30;37.00;;;;;;4917047;29;20239;-76
2022/03/13 11:19:03;;;;;;;9.80;8.73;;;21.20;37.10;;;;;;4919356;29;20304;-76
2022/03/13 11:21:32;;;;;;;12.00;8.75;;;21.20;36.50;;;;;;4917698;29;20235;-76
2022/03/13 11:24:01;;;;;;;10.20;9.10;;;20.90;37.70;;;;;;4918593;29;20244;-76
2022/03/13 11:26:31;;;;;;;10.68;8.60;;;20.80;37.50;;;;;;4914497;29;20285;-76
2022/03/13 11:29:00;;;;;;;9.85;8.60;;;20.90;37.30;;;;;;4910774;29;20213;-76
2022/03/13 11:31:32;;;;;;;9.48;8.45;;;20.90;36.90;;;;;;4917001;29;20212;-78
2022/03/13 11:34:13;;;;;;;9.35;8.40;;;21.00;38.70;;;;;;4916759;29;20651;-75
2022/03/13 11:36:43;;;;;;;9.80;8.80;;;21.10;37.50;;;;;;4917277;29;20251;-77
2022/03/13 11:39:13;;;;;;;9.80;8.80;;;20.60;38.30;;;;;;4904313;29;20703;-77
2022/03/13 11:41:43;;;;;;;10.13;9.02;;;20.70;37.10;;;;;;4897895;29;20229;-78
2022/03/13 11:44:49;;;;;;;10.32;9.20;;;20.30;39.20;;;;;;4898128;29;20586;-76
2022/03/13 11:47:22;;;;;;;11.15;8.82;;;20.60;37.50;;;;;;4897965;29;20296;-76
2022/03/13 11:49:52;;;;;;;9.93;8.90;;;19.90;38.90;;;;;;4901227;29;20361;-76
2022/03/13 11:52:30;;;;;;;11.67;9.20;;;19.60;39.00;;;;;;4916572;29;20324;-76
2022/03/13 11:55:00;;;;;;;10.40;9.20;;;19.80;37.90;;;;;;4916664;29;20197;-78
2022/03/13 11:57:42;;;;;;;11.83;10.13;;;19.70;38.90;;;;;;4916583;29;20212;-75
2022/03/13 12:00:30;;;;;;;10.57;9.47;;;19.50;39.00;;;;;;4916279;29;20205;-77
2022/03/13 12:03:14;;;;;;;10.53;9.30;;;19.40;39.80;;;;;;4916283;29;20228;-76
2022/03/13 12:05:55;;;;;;;11.60;9.50;;;18.70;40.20;;;;;;4898444;29;20256;-77
2022/03/13 12:08:25;;;;;;;12.07;9.00;;;18.70;39.90;;;;;;4897924;29;20746;-76
2022/03/13 12:10:53;;;;;;;12.30;9.57;;;18.10;41.20;;;;;;4897683;29;20629;-77
2022/03/13 12:13:22;;;;;;;10.57;9.37;;;18.00;41.50;;;;;;4897653;29;20336;-76
2022/03/13 12:15:50;;;;;;;11.47;10.07;;;17.70;41.20;;;;;;4916544;29;20225;-75
2022/03/13 12:18:24;;;;;;;10.77;9.30;;;17.50;41.50;;;;;;4909335;29;20696;-76
2022/03/13 12:21:07;;;;;;;11.57;9.40;;;17.50;41.50;;;;;;4896921;29;20213;-76
2022/03/13 12:23:36;;;;;;;11.47;9.27;;;17.20;41.20;;;;;;4897348;29;20200;-75
2022/03/13 12:26:14;;;;;;;12.10;9.23;;;17.10;41.10;;;;;;4901919;29;20193;-78
2022/03/13 12:28:43;;;;;;;12.77;9.17;;;16.80;42.00;;;;;;4916429;29;20303;-76
2022/03/13 12:31:12;;;;;;;12.30;9.60;;;16.60;42.20;;;;;;4916147;29;20220;-77
2022/03/13 12:33:45;;;;;;;11.77;9.80;;;16.70;43.40;;;;;;4915771;29;20279;-76
2022/03/13 12:36:14;;;;;;;13.70;10.20;;;16.60;43.80;;;;;;4916003;29;20255;-75
2022/03/13 12:38:44;;;;;;;14.30;10.13;;;16.60;43.10;;;;;;4908195;29;20634;-76
2022/03/13 12:41:15;;;;;;;10.90;8.90;;;16.80;43.30;;;;;;4897116;29;20234;-75
2022/03/13 12:43:52;;;;;;;11.90;9.10;;;16.60;42.70;;;;;;4897331;29;20217;-76
2022/03/13 12:46:21;;;;;;;11.27;9.00;;;16.60;43.00;;;;;;4897534;29;20204;-77
2022/03/13 12:48:55;;;;;;;12.73;9.63;;;16.20;42.90;;;;;;4897265;29;20221;-78
2022/03/13 12:51:41;;;;;;;12.07;9.50;;;16.50;44.20;;;;;;4908400;29;20208;-79
2022/03/13 12:54:12;;;;;;;12.23;9.50;;;16.40;43.00;;;;;;4915834;29;20216;-79
2022/03/13 12:56:45;;;;;;;11.93;9.67;;;16.30;43.50;;;;;;4917336;29;20308;-78
2022/03/13 12:59:27;;;;;;;11.30;9.03;;;16.40;43.70;;;;;;4916135;29;20362;-78
2022/03/13 13:02:09;;;;;;;13.23;9.30;;;16.40;43.80;;;;;;4914410;29;20249;-77
2022/03/13 13:04:40;;;;;;;13.13;9.03;;;16.40;43.70;;;;;;4897548;29;20202;-75